createdAt,value
2018-09-03T00:00:26.102Z,15.80
2018-09-03T00:03:30.246Z,15.80
2018-09-03T00:06:34.580Z,15.70
2018-09-03T00:09:41.278Z,15.70
2018-09-03T00:12:45.455Z,15.60
2018-09-03T00:15:49.902Z,15.60
2018-09-03T00:18:54.536Z,15.70
2018-09-03T00:21:59.052Z,15.70
2018-09-03T00:25:03.225Z,15.70
2018-09-03T00:28:07.396Z,15.70
2018-09-03T00:31:16.659Z,15.70
2018-09-03T00:34:26.086Z,15.70
2018-09-03T00:37:35.595Z,15.70
2018-09-03T00:40:44.929Z,15.70
2018-09-03T00:43:54.439Z,15.60
2018-09-03T00:47:01.700Z,15.60
2018-09-03T00:50:06.282Z,15.60
2018-09-03T00:53:10.450Z,15.70
2018-09-03T00:56:14.861Z,15.70
2018-09-03T00:59:19.162Z,15.70
2018-09-03T01:02:23.335Z,15.70
2018-09-03T01:05:27.450Z,15.80
2018-09-03T01:08:31.584Z,15.90
2018-09-03T01:11:35.803Z,15.90
2018-09-03T01:14:39.982Z,15.80
2018-09-03T01:17:44.124Z,15.90
2018-09-03T01:20:48.888Z,15.90
2018-09-03T01:23:53.416Z,15.90
2018-09-03T01:26:57.589Z,15.80
2018-09-03T01:30:01.720Z,15.80
2018-09-03T01:33:05.877Z,15.70
2018-09-03T01:36:10.061Z,15.60
2018-09-03T01:39:14.207Z,15.60
2018-09-03T01:42:18.366Z,15.60
2018-09-03T01:45:22.509Z,15.50
2018-09-03T01:48:26.750Z,15.50
2018-09-03T01:51:30.864Z,15.40
2018-09-03T01:54:35.320Z,15.40
2018-09-03T01:57:39.509Z,15.50
2018-09-03T02:00:43.700Z,15.40
2018-09-03T02:03:47.851Z,15.30
2018-09-03T02:06:52.000Z,15.40
2018-09-03T02:09:56.292Z,15.40
2018-09-03T02:13:00.479Z,15.40
2018-09-03T02:16:05.052Z,15.40
2018-09-03T02:19:09.766Z,15.40
2018-09-03T02:22:13.888Z,15.40
2018-09-03T02:25:18.003Z,15.40
2018-09-03T02:28:22.142Z,15.40
2018-09-03T02:31:26.260Z,15.30
2018-09-03T02:34:30.388Z,15.40
2018-09-03T02:37:34.667Z,15.40
2018-09-03T02:40:38.915Z,15.50
2018-09-03T02:43:43.149Z,15.60
2018-09-03T02:46:47.243Z,15.60
2018-09-03T02:49:51.370Z,15.50
2018-09-03T02:52:55.578Z,15.40
2018-09-03T02:55:59.722Z,15.60
2018-09-03T02:59:03.936Z,15.80
2018-09-03T03:02:08.106Z,15.80
2018-09-03T03:05:12.347Z,15.70
2018-09-03T03:08:16.500Z,15.80
2018-09-03T03:11:20.643Z,15.70
2018-09-03T03:14:25.398Z,15.60
2018-09-03T03:17:29.641Z,15.60
2018-09-03T03:20:33.792Z,15.50
2018-09-03T03:23:37.962Z,15.50
2018-09-03T03:26:42.164Z,15.40
2018-09-03T03:29:46.373Z,15.40
2018-09-03T03:32:51.193Z,15.40
2018-09-03T03:35:55.357Z,15.40
2018-09-03T03:38:59.793Z,15.40
2018-09-03T03:42:03.952Z,15.40
2018-09-03T03:45:08.247Z,15.40
2018-09-03T03:48:12.367Z,15.40
2018-09-03T03:51:16.997Z,15.30
2018-09-03T03:54:21.150Z,15.30
2018-09-03T03:57:25.585Z,15.40
2018-09-03T04:00:29.714Z,15.40
2018-09-03T04:03:33.801Z,15.30
2018-09-03T04:06:37.973Z,15.30
2018-09-03T04:09:42.073Z,15.40
2018-09-03T04:12:51.571Z,15.40
2018-09-03T04:15:55.784Z,15.40
2018-09-03T04:18:59.931Z,15.50
2018-09-03T04:22:04.023Z,15.50
2018-09-03T04:25:08.218Z,15.50
2018-09-03T04:28:12.387Z,15.50
2018-09-03T04:31:16.534Z,15.40
2018-09-03T04:34:20.718Z,15.40
2018-09-03T04:37:24.941Z,15.50
2018-09-03T04:40:29.305Z,15.60
2018-09-03T04:43:33.445Z,15.60
2018-09-03T04:46:37.646Z,15.60
2018-09-03T04:49:41.970Z,15.60
2018-09-03T04:52:46.099Z,15.60
2018-09-03T04:55:50.283Z,15.70
2018-09-03T04:58:54.419Z,15.80
2018-09-03T05:01:58.588Z,15.90
2018-09-03T05:05:02.723Z,15.90
2018-09-03T05:08:06.977Z,15.80
2018-09-03T05:11:11.095Z,15.80
2018-09-03T05:14:15.469Z,15.80
2018-09-03T05:17:19.607Z,15.70
2018-09-03T05:20:23.765Z,15.70
2018-09-03T05:23:27.966Z,15.70
2018-09-03T05:26:32.259Z,15.70
2018-09-03T05:29:36.438Z,15.70
2018-09-03T05:32:40.712Z,16.00
2018-09-03T05:35:44.977Z,16.20
2018-09-03T05:38:49.108Z,16.40
2018-09-03T05:41:53.663Z,16.40
2018-09-03T05:44:57.807Z,16.30
2018-09-03T05:48:02.159Z,16.40
2018-09-03T05:51:06.745Z,16.40
2018-09-03T05:54:10.911Z,16.40
2018-09-03T05:57:15.646Z,16.50
2018-09-03T06:00:19.779Z,16.70
2018-09-03T06:03:24.359Z,16.70
2018-09-03T06:06:28.458Z,16.80
2018-09-03T06:09:32.652Z,16.70
2018-09-03T06:12:37.380Z,16.80
2018-09-03T06:15:41.621Z,16.80
2018-09-03T06:18:45.806Z,16.80
2018-09-03T06:21:49.931Z,16.80
2018-09-03T06:24:54.223Z,16.70
2018-09-03T06:27:58.403Z,16.70
2018-09-03T06:31:02.722Z,16.90
2018-09-03T06:34:06.991Z,17.00
2018-09-03T06:37:11.148Z,16.90
2018-09-03T06:40:15.301Z,16.90
2018-09-03T06:43:19.459Z,17.00
2018-09-03T06:46:24.606Z,17.00
2018-09-03T06:49:28.691Z,17.10
2018-09-03T06:52:32.839Z,17.30
2018-09-03T06:55:37.001Z,17.40
2018-09-03T06:58:41.379Z,17.40
2018-09-03T07:01:45.582Z,17.40
2018-09-03T07:04:49.696Z,17.30
2018-09-03T07:07:53.823Z,17.30
2018-09-03T07:10:57.966Z,17.30
2018-09-03T07:14:02.237Z,17.20
2018-09-03T07:17:06.594Z,17.20
2018-09-03T07:20:10.733Z,17.20
2018-09-03T07:23:14.897Z,17.20
2018-09-03T07:26:19.086Z,17.30
2018-09-03T07:29:23.337Z,17.20
2018-09-03T07:32:27.676Z,17.30
2018-09-03T07:35:31.811Z,17.30
2018-09-03T07:38:36.071Z,17.10
2018-09-03T07:41:40.294Z,17.10
2018-09-03T07:44:44.478Z,17.00
2018-09-03T07:47:48.648Z,17.10
2018-09-03T07:50:52.808Z,17.30
2018-09-03T07:53:56.897Z,17.30
2018-09-03T07:57:01.069Z,17.30
2018-09-03T08:00:05.253Z,17.20
2018-09-03T08:03:09.404Z,17.00
2018-09-03T08:06:13.524Z,16.90
2018-09-03T08:09:17.663Z,16.80
2018-09-03T08:12:21.827Z,16.70
2018-09-03T08:15:25.978Z,16.50
2018-09-03T08:18:30.102Z,16.30
2018-09-03T08:21:34.243Z,16.40
2018-09-03T08:24:39.164Z,16.70
2018-09-03T08:27:43.327Z,16.70
2018-09-03T08:30:47.478Z,16.60
2018-09-03T08:33:51.606Z,16.60
2018-09-03T08:36:55.750Z,16.70
2018-09-03T08:39:59.878Z,16.70
2018-09-03T08:43:03.998Z,16.70
2018-09-03T08:46:08.092Z,16.70
2018-09-03T08:49:12.306Z,16.80
2018-09-03T08:52:16.429Z,16.90
2018-09-03T08:55:20.597Z,17.10
2018-09-03T08:58:24.767Z,17.20
2018-09-03T09:01:28.974Z,17.20
2018-09-03T09:04:33.146Z,17.30
2018-09-03T09:07:37.369Z,17.60
2018-09-03T09:10:41.777Z,17.40
2018-09-03T09:13:46.571Z,17.20
2018-09-03T09:16:50.826Z,17.40
2018-09-03T09:19:55.091Z,17.50
2018-09-03T09:22:59.525Z,17.60
2018-09-03T09:26:04.331Z,17.60
2018-09-03T09:29:08.600Z,17.60
2018-09-03T09:32:12.861Z,17.60
2018-09-03T09:35:17.187Z,17.70
2018-09-03T09:38:21.338Z,17.70
2018-09-03T09:41:25.882Z,17.50
2018-09-03T09:44:30.123Z,17.40
2018-09-03T09:47:34.339Z,17.30
2018-09-03T09:50:38.573Z,17.40
2018-09-03T09:53:42.791Z,17.50
2018-09-03T09:56:47.342Z,17.50
2018-09-03T09:59:52.541Z,17.50
2018-09-03T10:02:56.796Z,17.30
2018-09-03T10:06:00.941Z,17.20
2018-09-03T10:09:07.621Z,17.10
2018-09-03T10:12:11.886Z,17.20
2018-09-03T10:15:16.327Z,17.30
2018-09-03T10:18:20.595Z,17.30
2018-09-03T10:21:24.845Z,17.30
2018-09-03T10:24:29.363Z,17.10
2018-09-03T10:27:33.942Z,17.20
2018-09-03T10:30:38.121Z,17.30
2018-09-03T10:33:42.335Z,17.40
2018-09-03T10:36:46.562Z,17.50
2018-09-03T10:39:51.124Z,17.60
2018-09-03T10:42:56.302Z,17.60
2018-09-03T10:46:00.721Z,17.30
2018-09-03T10:49:04.896Z,17.10
2018-09-03T10:52:09.901Z,17.00
2018-09-03T10:55:14.149Z,17.00
2018-09-03T10:58:18.471Z,17.00
2018-09-03T11:01:22.713Z,17.10
2018-09-03T11:04:26.878Z,17.10
2018-09-03T11:07:31.122Z,17.40
2018-09-03T11:10:35.904Z,17.60
2018-09-03T11:13:40.388Z,17.70
2018-09-03T11:16:44.584Z,17.70
2018-09-03T11:19:56.042Z,17.60
2018-09-03T11:23:00.253Z,17.60
2018-09-03T11:26:04.484Z,17.70
2018-09-03T11:29:08.716Z,17.70
2018-09-03T11:32:12.892Z,17.60
2018-09-03T11:35:17.255Z,17.70
2018-09-03T11:38:21.432Z,17.70
2018-09-03T11:41:25.551Z,17.70
2018-09-03T11:44:29.708Z,17.70
2018-09-03T11:47:33.859Z,17.70
2018-09-03T11:50:38.004Z,17.90
2018-09-03T11:53:42.261Z,17.90
2018-09-03T11:56:46.385Z,17.90
2018-09-03T11:59:50.555Z,17.90
2018-09-03T12:02:54.763Z,17.90
2018-09-03T12:05:58.969Z,18.20
2018-09-03T12:09:03.655Z,18.30
2018-09-03T12:12:07.816Z,18.40
2018-09-03T12:16:19.808Z,18.40
2018-09-03T12:19:23.975Z,18.40
2018-09-03T12:22:28.127Z,18.50
2018-09-03T12:25:32.307Z,18.60
2018-09-03T12:28:36.450Z,18.70
2018-09-03T12:31:40.607Z,18.60
2018-09-03T12:34:44.754Z,18.60
2018-09-03T12:37:50.025Z,18.70
2018-09-03T12:40:54.323Z,18.50
2018-09-03T12:43:58.817Z,18.20
2018-09-03T12:47:03.000Z,18.20
2018-09-03T12:50:07.260Z,18.40
2018-09-03T12:53:11.361Z,18.20
2018-09-03T12:56:15.548Z,18.30
2018-09-03T12:59:19.733Z,18.20
2018-09-03T13:02:23.851Z,18.20
2018-09-03T13:05:27.999Z,18.20
2018-09-03T13:08:32.227Z,18.20
2018-09-03T13:11:36.364Z,18.20
2018-09-03T13:14:40.585Z,18.40
2018-09-03T13:17:44.757Z,18.40
2018-09-03T13:20:48.891Z,18.40
2018-09-03T13:23:53.056Z,18.30
2018-09-03T13:26:57.287Z,18.30
2018-09-03T13:30:01.712Z,18.50
2018-09-03T13:33:06.051Z,18.40
2018-09-03T13:36:10.221Z,18.40
2018-09-03T13:39:14.295Z,18.40
2018-09-03T13:42:18.528Z,18.40
2018-09-03T13:45:22.665Z,18.70
2018-09-03T13:48:26.785Z,18.80
2018-09-03T13:51:31.651Z,18.70
2018-09-03T13:54:35.804Z,18.70
2018-09-03T13:57:40.191Z,18.80
2018-09-03T14:00:44.379Z,18.80
2018-09-03T14:03:48.501Z,19.00
2018-09-03T14:06:52.656Z,19.10
2018-09-03T14:09:56.872Z,19.20
2018-09-03T14:13:01.029Z,19.10
2018-09-03T14:16:05.170Z,19.30
2018-09-03T14:19:09.363Z,19.40
2018-09-03T14:22:13.514Z,19.50
2018-09-03T14:25:17.687Z,19.40
2018-09-03T14:28:21.908Z,19.30
2018-09-03T14:31:26.016Z,19.30
2018-09-03T14:34:30.194Z,19.30
2018-09-03T14:37:34.316Z,19.40
2018-09-03T14:40:39.687Z,19.30
2018-09-03T14:43:44.176Z,19.40
2018-09-03T14:46:48.349Z,19.50
2018-09-03T14:49:52.513Z,19.30
2018-09-03T14:52:57.783Z,19.10
2018-09-03T14:56:01.906Z,19.20
2018-09-03T14:59:06.275Z,19.30
2018-09-03T15:02:10.669Z,19.00
2018-09-03T15:05:15.296Z,18.80
2018-09-03T15:08:19.523Z,18.80
2018-09-03T15:11:23.709Z,18.90
2018-09-03T15:14:27.822Z,19.00
2018-09-03T15:17:32.008Z,19.10
2018-09-03T15:20:36.156Z,19.10
2018-09-03T15:23:40.503Z,19.10
2018-09-03T15:26:44.741Z,19.10
2018-09-03T15:29:48.773Z,18.90
2018-09-03T15:32:52.935Z,19.00
2018-09-03T15:35:57.080Z,18.90
2018-09-03T15:39:01.356Z,18.90
2018-09-03T15:42:05.659Z,19.00
2018-09-03T15:45:09.879Z,19.00
2018-09-03T15:48:14.103Z,19.00
2018-09-03T15:51:18.741Z,18.90
2018-09-03T15:54:22.870Z,18.90
2018-09-03T15:57:27.057Z,19.10
2018-09-03T16:00:31.243Z,19.30
2018-09-03T16:03:35.453Z,19.40
2018-09-03T16:06:39.847Z,19.40
2018-09-03T16:09:43.993Z,19.40
2018-09-03T16:12:48.139Z,19.50
2018-09-03T16:15:53.776Z,19.40
2018-09-03T16:18:58.184Z,19.30
2018-09-03T16:22:02.460Z,19.30
2018-09-03T16:25:06.841Z,19.30
2018-09-03T16:28:11.032Z,19.20
2018-09-03T16:31:15.166Z,19.20
2018-09-03T16:34:19.396Z,19.10
2018-09-03T16:37:23.549Z,18.90
2018-09-03T16:40:28.309Z,18.90
2018-09-03T16:43:32.486Z,18.90
2018-09-03T16:46:36.672Z,18.90
2018-09-03T16:49:40.862Z,18.90
2018-09-03T16:52:45.078Z,18.80
2018-09-03T16:55:49.290Z,18.70
2018-09-03T16:58:53.747Z,18.70
2018-09-03T17:01:57.943Z,18.70
2018-09-03T17:05:02.387Z,18.60
2018-09-03T17:08:06.681Z,18.50
2018-09-03T17:11:10.873Z,18.60
2018-09-03T17:14:15.021Z,18.50
2018-09-03T17:17:19.272Z,18.50
2018-09-03T17:20:23.523Z,18.60
2018-09-03T17:23:27.644Z,18.60
2018-09-03T17:26:31.914Z,18.60
2018-09-03T17:29:36.435Z,18.50
2018-09-03T17:32:40.812Z,18.50
2018-09-03T17:35:44.984Z,18.40
2018-09-03T17:38:49.277Z,18.40
2018-09-03T17:41:53.543Z,18.30
2018-09-03T17:44:57.823Z,18.30
2018-09-03T17:48:02.042Z,18.30
2018-09-03T17:51:06.375Z,18.20
2018-09-03T17:54:10.604Z,18.20
2018-09-03T17:57:14.828Z,18.10
2018-09-03T18:00:19.203Z,18.10
2018-09-03T18:03:23.570Z,18.00
2018-09-03T18:06:27.795Z,17.80
2018-09-03T18:09:32.160Z,17.80
2018-09-03T18:12:36.479Z,17.70
2018-09-03T18:15:40.969Z,17.60
2018-09-03T18:18:45.142Z,17.50
2018-09-03T18:21:49.398Z,17.40
2018-09-03T18:24:53.672Z,17.30
2018-09-03T18:27:57.911Z,17.20
2018-09-03T18:31:02.122Z,17.10
2018-09-03T18:34:06.648Z,17.10
2018-09-03T18:37:10.883Z,17.00
2018-09-03T18:40:15.049Z,17.00
2018-09-03T18:43:20.987Z,17.00
2018-09-03T18:46:25.193Z,17.00
2018-09-03T18:49:30.277Z,17.00
2018-09-03T18:52:34.535Z,16.90
2018-09-03T18:55:38.764Z,16.80
2018-09-03T18:58:42.916Z,16.80
2018-09-03T19:01:47.186Z,16.70
2018-09-03T19:04:52.719Z,16.60
2018-09-03T19:07:57.063Z,16.50
2018-09-03T19:11:01.289Z,16.40
2018-09-03T19:14:05.584Z,16.30
2018-09-03T19:17:10.772Z,16.20
2018-09-03T19:20:14.918Z,16.20
2018-09-03T19:23:19.147Z,16.20
2018-09-03T19:26:23.350Z,16.30
2018-09-03T19:29:27.742Z,16.30
2018-09-03T19:32:32.228Z,16.30
2018-09-03T19:35:36.338Z,16.40
2018-09-03T19:38:40.906Z,16.50
2018-09-03T19:41:45.356Z,16.50
2018-09-03T19:44:50.473Z,16.50
2018-09-03T19:47:54.756Z,16.30
2018-09-03T19:51:00.103Z,16.30
2018-09-03T19:54:04.304Z,16.30
2018-09-03T19:57:08.693Z,16.30
2018-09-03T20:00:12.969Z,16.40
2018-09-03T20:03:17.211Z,16.50
2018-09-03T20:06:21.705Z,16.40
2018-09-03T20:09:26.557Z,16.40
2018-09-03T20:12:30.720Z,16.40
2018-09-03T20:15:34.865Z,16.20
2018-09-03T20:18:39.043Z,16.20
2018-09-03T20:21:43.321Z,16.20
2018-09-03T20:24:48.550Z,16.10
2018-09-03T20:27:59.398Z,16.20
2018-09-03T20:31:03.671Z,16.20
2018-09-03T20:34:07.783Z,16.00
2018-09-03T20:37:11.972Z,15.90
2018-09-03T20:40:16.083Z,15.90
2018-09-03T20:43:20.247Z,15.80
2018-09-03T20:46:24.503Z,15.80
2018-09-03T20:49:28.618Z,15.90
2018-09-03T20:52:32.800Z,15.90
2018-09-03T20:55:37.284Z,15.70
2018-09-03T20:58:41.579Z,15.60
2018-09-03T21:01:45.764Z,15.60
2018-09-03T21:04:49.918Z,15.70
2018-09-03T21:07:54.074Z,15.70
2018-09-03T21:10:58.312Z,15.60
2018-09-03T21:14:02.461Z,15.60
2018-09-03T21:17:06.962Z,15.50
2018-09-03T21:20:11.188Z,15.60
2018-09-03T21:23:15.435Z,15.70
2018-09-03T21:26:19.599Z,15.70
2018-09-03T21:29:23.783Z,15.80
2018-09-03T21:32:28.066Z,15.80
2018-09-03T21:35:32.206Z,15.70
2018-09-03T21:38:36.394Z,15.80
2018-09-03T21:41:40.730Z,15.80
2018-09-03T21:44:45.397Z,16.00
2018-09-03T21:47:49.571Z,16.00
2018-09-03T21:50:53.788Z,16.00
2018-09-03T21:53:57.945Z,15.90
2018-09-03T21:57:02.055Z,15.80
2018-09-03T22:00:06.334Z,15.80
2018-09-03T22:03:10.550Z,15.90
2018-09-03T22:06:14.692Z,15.80
2018-09-03T22:09:18.953Z,15.80
2018-09-03T22:12:23.111Z,15.80
2018-09-03T22:15:27.266Z,15.80
2018-09-03T22:18:31.793Z,15.70
2018-09-03T22:21:35.956Z,15.70
2018-09-03T22:24:40.434Z,15.70
2018-09-03T22:27:44.584Z,15.80
2018-09-03T22:30:48.757Z,15.80
2018-09-03T22:33:53.890Z,15.70
2018-09-03T22:36:58.065Z,15.60
2018-09-03T22:40:02.206Z,15.60
2018-09-03T22:43:06.398Z,15.70
2018-09-03T22:46:10.523Z,15.70
2018-09-03T22:49:14.657Z,15.80
2018-09-03T22:52:18.789Z,15.90
2018-09-03T22:55:22.922Z,16.00
2018-09-03T22:58:27.624Z,16.00
2018-09-03T23:01:31.910Z,15.90
2018-09-03T23:04:36.084Z,16.00
2018-09-03T23:07:40.547Z,16.10
2018-09-03T23:10:44.831Z,16.10
2018-09-03T23:13:49.001Z,16.00
2018-09-03T23:16:53.135Z,15.90
2018-09-03T23:19:57.280Z,15.80
2018-09-03T23:23:01.977Z,15.70
2018-09-03T23:26:06.130Z,15.70
2018-09-03T23:29:10.295Z,15.90
2018-09-03T23:32:14.499Z,15.90
2018-09-03T23:35:18.840Z,15.90
2018-09-03T23:38:23.007Z,15.90
2018-09-03T23:41:27.087Z,15.80
2018-09-03T23:44:31.222Z,15.70
2018-09-03T23:47:35.814Z,15.60
2018-09-03T23:50:40.048Z,15.80
2018-09-03T23:53:44.205Z,15.80
2018-09-03T23:56:48.336Z,15.80
2018-09-03T23:59:52.517Z,15.80
